Gorham, Kansas
Current Conditions -  °F | °C
As of 12:53 AM on Friday 31 Oct 2014 (Local Time) from KRSL Reporting Station
Clear Clear  
Wind Chill: 34°   Ceiling: Unl
Heat Index: 41°   Visibility: 10mi
Dew Point: 34°   Wind: 12mph
Humidity: 76%   Direction: 10°N
Pressure: 30.39"   Gusts: NA
Location:  38.88°N, 99.02°W
Report Text: KRSL 310553Z AUTO 01010KT 10SM CLR 05/01 A3039 RMK AO2 SLP291 T00500011 10139 20050 402110050 51026
Loading
Personal Weather Stations






























Interactive Weather Map New forecast layout! Learn more

10-Day Weather Forecast

Advertisements
Track Severe Weather on mobile